Time;durP1;ratioP1;P1;durP2;ratioP2;P2;SDS_P1;SDS_P2;PMS_P1;PMS_P2;Temp;Humidity;BMP_temperature;BMP_pressure;BME280_temperature;BME280_humidity;BME280_pressure;Samples;Min_cycle;Max_cycle;Signal;HPM_P1;HPM_P2
2023/06/13 00:02:03;;;;;;;6.07;4.80;;;;;;;;;;5075886;28;20833;-80
2023/06/13 00:04:30;;;;;;;5.80;4.20;;;;;;;;;;5085795;28;20466;-79
2023/06/13 00:06:58;;;;;;;4.60;3.80;;;;;;;;;;5081608;28;20540;-79
2023/06/13 00:09:25;;;;;;;6.60;4.43;;;;;;;;;;5082393;28;20479;-80
2023/06/13 00:11:52;;;;;;;9.83;4.47;;;;;;;;;;5070891;28;20988;-79
2023/06/13 00:14:18;;;;;;;4.57;4.17;;;;;;;;;;5080514;28;20442;-79
2023/06/13 00:16:47;;;;;;;6.07;4.83;;;;;;;;;;5081358;28;20458;-79
2023/06/13 00:19:13;;;;;;;5.60;4.20;;;;;;;;;;5083380;28;20562;-79
2023/06/13 00:21:41;;;;;;;7.03;4.80;;;;;;;;;;5079510;28;20433;-80
2023/06/13 00:24:08;;;;;;;6.00;4.93;;;;;;;;;;5078276;28;20436;-80
2023/06/13 00:26:35;;;;;;;6.43;5.00;;;;;;;;;;5080487;28;20420;-81
2023/06/13 00:29:01;;;;;;;10.90;4.50;;;;;;;;;;5080608;28;20441;-80
2023/06/13 00:31:28;;;;;;;6.83;4.73;;;;;;;;;;5076253;28;20475;-80
2023/06/13 00:33:55;;;;;;;6.70;5.27;;;;;;;;;;5077809;28;20776;-81
2023/06/13 00:36:28;;;;;;;5.10;4.53;;;;;;;;;;5081974;28;20421;-80
2023/06/13 00:38:55;;;;;;;5.70;4.50;;;;;;;;;;5083445;28;20602;-80
2023/06/13 00:41:23;;;;;;;6.50;4.37;;;;;;;;;;5081862;28;20439;-80
2023/06/13 00:43:51;;;;;;;8.77;4.83;;;;;;;;;;5077423;28;20433;-80
2023/06/13 00:46:17;;;;;;;6.20;4.97;;;;;;;;;;5075088;28;20923;-80
2023/06/13 00:48:45;;;;;;;5.70;5.10;;;;;;;;;;5083901;28;20872;-80
2023/06/13 00:51:12;;;;;;;6.20;4.80;;;;;;;;;;5082623;28;20806;-80
2023/06/13 00:53:38;;;;;;;5.53;4.73;;;;;;;;;;5080864;28;20475;-80
2023/06/13 00:56:06;;;;;;;6.17;5.43;;;;;;;;;;5080164;28;20470;-80
2023/06/13 00:58:35;;;;;;;11.50;6.37;;;;;;;;;;5061358;28;20570;-79
2023/06/13 01:01:03;;;;;;;6.87;5.23;;;;;;;;;;5070982;28;20860;-80
2023/06/13 01:03:29;;;;;;;5.93;5.27;;;;;;;;;;5079431;28;20451;-80
2023/06/13 01:05:56;;;;;;;5.00;4.50;;;;;;;;;;5080367;28;20806;-80
2023/06/13 01:08:25;;;;;;;8.10;5.87;;;;;;;;;;5085322;28;20958;-80
2023/06/13 01:10:54;;;;;;;8.73;5.10;;;;;;;;;;5080088;28;20459;-80
2023/06/13 01:13:24;;;;;;;7.03;5.63;;;;;;;;;;5079331;28;20457;-80
2023/06/13 01:15:54;;;;;;;6.00;5.07;;;;;;;;;;5087042;28;20812;-80
2023/06/13 01:18:24;;;;;;;7.13;5.20;;;;;;;;;;5075366;28;20856;-80
2023/06/13 01:20:56;;;;;;;6.13;4.80;;;;;;;;;;5067697;28;20429;-79
2023/06/13 01:23:26;;;;;;;6.13;4.83;;;;;;;;;;5075299;28;20479;-78
2023/06/13 01:25:59;;;;;;;6.07;4.60;;;;;;;;;;5082043;28;20965;-79
2023/06/13 01:28:29;;;;;;;6.83;5.00;;;;;;;;;;5076962;28;20474;-79
2023/06/13 01:30:56;;;;;;;9.20;5.47;;;;;;;;;;5077229;28;20973;-81
2023/06/13 01:33:24;;;;;;;5.40;4.30;;;;;;;;;;5072882;28;20856;-82
2023/06/13 01:35:50;;;;;;;4.43;4.03;;;;;;;;;;5067675;28;20459;-79
2023/06/13 01:38:17;;;;;;;5.17;4.33;;;;;;;;;;5075618;28;20447;-81
2023/06/13 01:40:46;;;;;;;5.97;4.90;;;;;;;;;;5077803;28;20417;-81
2023/06/13 01:43:14;;;;;;;5.50;4.47;;;;;;;;;;5071741;28;20801;-81
2023/06/13 01:45:42;;;;;;;5.67;4.53;;;;;;;;;;5082472;28;20860;-81
2023/06/13 01:48:10;;;;;;;7.90;5.33;;;;;;;;;;5072955;28;20477;-81
2023/06/13 01:50:41;;;;;;;7.13;5.37;;;;;;;;;;5071129;28;20826;-81
2023/06/13 01:53:09;;;;;;;4.63;3.93;;;;;;;;;;5080967;28;20556;-81
2023/06/13 01:55:39;;;;;;;5.53;4.63;;;;;;;;;;5081903;28;20511;-81
2023/06/13 01:58:08;;;;;;;8.40;5.00;;;;;;;;;;5077701;28;20478;-81
2023/06/13 02:00:35;;;;;;;6.10;4.80;;;;;;;;;;5069589;28;20458;-81
2023/06/13 02:03:05;;;;;;;8.20;4.77;;;;;;;;;;5080247;28;20463;-80
2023/06/13 02:05:32;;;;;;;6.20;4.80;;;;;;;;;;5079186;28;21007;-81
2023/06/13 02:07:58;;;;;;;9.00;5.67;;;;;;;;;;5077740;28;21020;-81
2023/06/13 02:10:25;;;;;;;12.00;5.40;;;;;;;;;;5083173;28;20479;-80
2023/06/13 02:12:51;;;;;;;7.70;5.47;;;;;;;;;;5073646;28;20478;-81
2023/06/13 02:15:18;;;;;;;9.37;5.57;;;;;;;;;;5077650;28;20417;-81
2023/06/13 02:17:45;;;;;;;5.67;5.10;;;;;;;;;;5075057;28;20471;-81
2023/06/13 02:20:14;;;;;;;7.10;4.87;;;;;;;;;;5083702;28;20445;-81
2023/06/13 02:22:40;;;;;;;6.60;5.17;;;;;;;;;;5068449;28;20467;-81
2023/06/13 02:25:07;;;;;;;6.93;5.00;;;;;;;;;;5089569;28;20417;-81
2023/06/13 02:27:33;;;;;;;6.27;5.17;;;;;;;;;;5087333;28;20470;-81
2023/06/13 02:30:00;;;;;;;5.20;4.70;;;;;;;;;;5076555;28;20454;-81
2023/06/13 02:32:29;;;;;;;5.60;5.00;;;;;;;;;;5078674;28;20963;-81
2023/06/13 02:34:56;;;;;;;7.17;5.60;;;;;;;;;;5079679;28;20443;-81
2023/06/13 02:37:24;;;;;;;7.43;4.10;;;;;;;;;;5074651;28;20487;-81
2023/06/13 02:39:50;;;;;;;7.10;5.40;;;;;;;;;;5070237;28;20966;-81
2023/06/13 02:42:16;;;;;;;6.73;5.23;;;;;;;;;;5077846;28;20466;-81
2023/06/13 02:44:44;;;;;;;8.40;4.63;;;;;;;;;;5082896;28;20462;-81
2023/06/13 02:47:11;;;;;;;6.53;4.97;;;;;;;;;;5081794;28;20470;-81
2023/06/13 02:49:38;;;;;;;5.70;5.13;;;;;;;;;;5070884;28;20458;-81
2023/06/13 02:52:05;;;;;;;7.10;4.90;;;;;;;;;;5076237;28;20473;-81
2023/06/13 02:54:32;;;;;;;6.47;5.40;;;;;;;;;;5081512;28;20464;-81
2023/06/13 02:56:59;;;;;;;7.23;5.73;;;;;;;;;;5076975;28;20461;-81
2023/06/13 02:59:26;;;;;;;6.30;5.20;;;;;;;;;;5074986;28;20516;-81
2023/06/13 03:01:53;;;;;;;6.30;4.67;;;;;;;;;;5078536;28;20463;-81
2023/06/13 03:04:19;;;;;;;7.80;5.33;;;;;;;;;;5072108;28;20472;-81
2023/06/13 03:06:46;;;;;;;11.50;5.33;;;;;;;;;;5083569;28;20827;-81
2023/06/13 03:09:12;;;;;;;8.10;5.63;;;;;;;;;;5067862;28;20456;-81
2023/06/13 03:11:40;;;;;;;6.00;5.20;;;;;;;;;;5074597;28;20455;-81
2023/06/13 03:14:06;;;;;;;7.63;5.60;;;;;;;;;;5060513;28;20458;-81
2023/06/13 03:16:35;;;;;;;7.80;7.00;;;;;;;;;;5070361;28;20450;-81
2023/06/13 03:19:02;;;;;;;8.00;5.00;;;;;;;;;;5081121;28;20504;-81
2023/06/13 03:21:28;;;;;;;7.10;5.67;;;;;;;;;;5075051;28;20465;-81
2023/06/13 03:23:55;;;;;;;7.70;6.13;;;;;;;;;;5083122;28;20448;-81
2023/06/13 03:26:22;;;;;;;8.70;6.87;;;;;;;;;;5081644;28;20459;-81
2023/06/13 03:28:50;;;;;;;10.43;6.00;;;;;;;;;;5073041;28;20513;-81
2023/06/13 03:31:17;;;;;;;6.67;6.00;;;;;;;;;;5079267;28;20460;-81
2023/06/13 03:33:43;;;;;;;8.27;6.13;;;;;;;;;;5075247;28;20467;-80
2023/06/13 03:36:09;;;;;;;7.20;6.37;;;;;;;;;;5083613;28;20462;-81
2023/06/13 03:38:36;;;;;;;7.17;6.47;;;;;;;;;;5070059;28;21073;-81
2023/06/13 03:41:02;;;;;;;10.10;6.40;;;;;;;;;;5073523;28;20442;-81
2023/06/13 03:43:29;;;;;;;8.43;6.77;;;;;;;;;;5078371;28;20467;-81
2023/06/13 03:45:57;;;;;;;7.53;6.50;;;;;;;;;;5083703;28;20493;-81
2023/06/13 03:48:23;;;;;;;6.27;5.43;;;;;;;;;;5078934;28;21026;-81
2023/06/13 03:50:50;;;;;;;8.57;6.07;;;;;;;;;;5080771;28;20443;-79
2023/06/13 03:53:16;;;;;;;8.63;7.00;;;;;;;;;;5076691;28;20461;-82
2023/06/13 03:55:44;;;;;;;11.03;6.10;;;;;;;;;;5080826;28;20446;-81
2023/06/13 03:58:12;;;;;;;7.37;5.73;;;;;;;;;;5078860;28;20474;-80
2023/06/13 04:00:39;;;;;;;6.53;5.00;;;;;;;;;;5080651;28;20510;-80
2023/06/13 04:03:08;;;;;;;7.70;5.87;;;;;;;;;;5077987;28;20506;-80
2023/06/13 04:05:34;;;;;;;7.63;5.63;;;;;;;;;;5085830;28;20546;-80
2023/06/13 04:08:02;;;;;;;6.80;5.80;;;;;;;;;;5074264;28;20955;-79
2023/06/13 04:10:28;;;;;;;6.83;6.10;;;;;;;;;;5076428;28;20450;-80
2023/06/13 04:12:54;;;;;;;6.83;5.00;;;;;;;;;;5080462;28;20466;-79
2023/06/13 04:15:22;;;;;;;7.33;5.97;;;;;;;;;;5080271;28;20457;-81
2023/06/13 04:17:49;;;;;;;15.23;5.33;;;;;;;;;;5082179;28;20475;-82
2023/06/13 04:20:19;;;;;;;5.80;5.20;;;;;;;;;;5085533;28;20493;-79
2023/06/13 04:22:47;;;;;;;6.90;5.47;;;;;;;;;;5085618;28;20474;-81
2023/06/13 04:25:13;;;;;;;5.53;4.60;;;;;;;;;;5078172;28;20449;-81
2023/06/13 04:27:39;;;;;;;6.43;4.30;;;;;;;;;;5073976;28;20482;-80
2023/06/13 04:30:06;;;;;;;6.50;4.77;;;;;;;;;;5076483;28;20832;-79
2023/06/13 04:32:34;;;;;;;9.73;4.50;;;;;;;;;;5078154;28;21071;-79
2023/06/13 04:35:01;;;;;;;6.33;4.60;;;;;;;;;;5078449;28;20450;-79
2023/06/13 04:37:30;;;;;;;5.30;4.60;;;;;;;;;;5076775;28;20508;-80
2023/06/13 04:39:56;;;;;;;3.77;3.30;;;;;;;;;;5075436;28;20483;-79
2023/06/13 04:42:27;;;;;;;6.90;4.20;;;;;;;;;;5068690;28;20463;-80
2023/06/13 04:44:55;;;;;;;12.00;3.90;;;;;;;;;;5069208;28;20647;-79
2023/06/13 04:47:23;;;;;;;4.10;3.70;;;;;;;;;;5079652;28;20498;-79
2023/06/13 04:49:51;;;;;;;4.37;3.97;;;;;;;;;;5081714;28;20443;-80
2023/06/13 04:52:18;;;;;;;5.77;2.90;;;;;;;;;;5083100;28;20493;-78
2023/06/13 04:54:46;;;;;;;4.27;2.83;;;;;;;;;;5083883;28;20509;-80
2023/06/13 04:57:13;;;;;;;5.93;3.37;;;;;;;;;;5077326;28;20475;-80
2023/06/13 04:59:40;;;;;;;6.17;3.00;;;;;;;;;;5082228;28;20479;-80
2023/06/13 05:02:06;;;;;;;8.77;3.30;;;;;;;;;;5082208;28;20542;-80
2023/06/13 05:04:33;;;;;;;5.33;3.10;;;;;;;;;;5089172;28;20459;-78
2023/06/13 05:07:01;;;;;;;3.67;2.60;;;;;;;;;;5077871;28;20482;-80
2023/06/13 05:09:27;;;;;;;3.20;2.77;;;;;;;;;;5083968;28;20520;-80
2023/06/13 05:11:55;;;;;;;3.30;3.00;;;;;;;;;;5082595;28;21003;-80
2023/06/13 05:14:21;;;;;;;3.37;3.07;;;;;;;;;;5077949;28;20450;-80
2023/06/13 05:16:49;;;;;;;3.27;2.47;;;;;;;;;;5074211;28;20489;-80
2023/06/13 05:19:17;;;;;;;3.40;2.87;;;;;;;;;;5075149;28;20478;-80
2023/06/13 05:21:44;;;;;;;3.20;3.00;;;;;;;;;;5083368;28;20469;-81
2023/06/13 05:24:11;;;;;;;7.33;3.50;;;;;;;;;;5080832;28;20455;-81
2023/06/13 05:26:37;;;;;;;13.60;2.93;;;;;;;;;;5079276;28;20459;-79
2023/06/13 05:29:06;;;;;;;5.30;2.43;;;;;;;;;;5071013;28;20471;-80
2023/06/13 05:31:33;;;;;;;2.87;2.67;;;;;;;;;;5073518;28;20470;-81
2023/06/13 05:34:00;;;;;;;6.30;2.90;;;;;;;;;;5075267;28;20490;-79
2023/06/13 05:36:26;;;;;;;4.33;2.40;;;;;;;;;;5073901;28;20462;-81
2023/06/13 05:38:54;;;;;;;4.60;2.27;;;;;;;;;;5076957;28;21002;-79
2023/06/13 05:41:20;;;;;;;6.10;3.50;;;;;;;;;;5066592;28;20470;-81
2023/06/13 05:43:46;;;;;;;4.63;2.67;;;;;;;;;;5080413;28;20454;-80
2023/06/13 05:46:14;;;;;;;5.07;3.20;;;;;;;;;;5082195;28;20446;-80
2023/06/13 05:48:40;;;;;;;3.83;2.30;;;;;;;;;;5079819;28;20585;-78
2023/06/13 05:51:07;;;;;;;4.40;3.37;;;;;;;;;;5070149;28;20463;-79
2023/06/13 05:53:33;;;;;;;2.70;2.40;;;;;;;;;;5085622;28;20581;-79
2023/06/13 05:56:00;;;;;;;3.70;2.47;;;;;;;;;;5068755;28;20443;-78
2023/06/13 05:58:26;;;;;;;3.53;2.43;;;;;;;;;;5083127;28;20481;-80
2023/06/13 06:00:53;;;;;;;3.27;2.57;;;;;;;;;;5081760;28;20485;-80
2023/06/13 06:03:21;;;;;;;5.83;2.70;;;;;;;;;;5078868;28;20451;-80
2023/06/13 06:05:48;;;;;;;5.10;2.80;;;;;;;;;;5079893;28;20923;-80
2023/06/13 06:08:14;;;;;;;7.67;3.03;;;;;;;;;;5080469;28;20470;-80
2023/06/13 06:10:41;;;;;;;2.87;2.60;;;;;;;;;;5077732;28;20907;-80
2023/06/13 06:13:07;;;;;;;3.33;2.87;;;;;;;;;;5079557;28;20444;-80
2023/06/13 06:15:34;;;;;;;4.60;2.60;;;;;;;;;;5076478;28;20941;-80
2023/06/13 06:18:01;;;;;;;7.97;2.80;;;;;;;;;;5082991;28;20531;-80
2023/06/13 06:20:29;;;;;;;4.43;2.83;;;;;;;;;;5083741;28;20843;-80
2023/06/13 06:22:55;;;;;;;2.80;2.57;;;;;;;;;;5081158;28;20473;-80
2023/06/13 06:25:21;;;;;;;3.97;2.83;;;;;;;;;;5080408;28;20450;-79
2023/06/13 06:27:48;;;;;;;2.70;2.50;;;;;;;;;;5076570;28;20478;-80
2023/06/13 06:30:15;;;;;;;4.40;3.03;;;;;;;;;;5078637;28;20451;-80
2023/06/13 06:32:42;;;;;;;7.33;2.73;;;;;;;;;;5077173;28;20444;-80
2023/06/13 06:35:08;;;;;;;2.70;2.50;;;;;;;;;;5090329;28;20421;-79
2023/06/13 06:37:36;;;;;;;7.83;3.00;;;;;;;;;;5086920;28;20448;-80
2023/06/13 06:40:03;;;;;;;5.33;2.33;;;;;;;;;;5082867;28;20977;-80
2023/06/13 06:42:29;;;;;;;2.90;2.67;;;;;;;;;;5080446;28;20449;-80
2023/06/13 06:44:56;;;;;;;5.10;3.20;;;;;;;;;;5071027;28;20421;-79
2023/06/13 06:47:22;;;;;;;3.20;2.43;;;;;;;;;;5079317;28;20469;-78
2023/06/13 06:49:48;;;;;;;6.33;3.57;;;;;;;;;;5081619;28;20975;-78
2023/06/13 06:52:15;;;;;;;3.90;2.90;;;;;;;;;;5075491;28;20474;-78
2023/06/13 06:54:42;;;;;;;2.40;2.20;;;;;;;;;;5073652;28;20442;-78
2023/06/13 06:57:10;;;;;;;4.57;3.10;;;;;;;;;;5079842;28;20479;-79
2023/06/13 06:59:36;;;;;;;3.73;2.87;;;;;;;;;;5073447;28;20581;-79
2023/06/13 07:02:03;;;;;;;2.80;2.50;;;;;;;;;;5078926;28;20469;-80
2023/06/13 07:04:29;;;;;;;3.87;3.20;;;;;;;;;;5081837;28;20461;-80
2023/06/13 07:06:56;;;;;;;3.00;2.67;;;;;;;;;;5074127;28;21000;-79
2023/06/13 07:09:22;;;;;;;16.23;3.47;;;;;;;;;;5077015;28;20451;-81
2023/06/13 07:11:53;;;;;;;6.03;3.37;;;;;;;;;;5076097;28;20537;-79
2023/06/13 07:14:20;;;;;;;3.10;2.80;;;;;;;;;;5082808;28;20446;-79
2023/06/13 07:16:47;;;;;;;3.73;3.17;;;;;;;;;;5077372;28;20839;-81
2023/06/13 07:19:13;;;;;;;6.00;2.83;;;;;;;;;;5087887;28;20425;-81
2023/06/13 07:21:40;;;;;;;4.87;3.43;;;;;;;;;;5076631;28;20466;-80
2023/06/13 07:24:06;;;;;;;4.03;2.87;;;;;;;;;;5081906;28;20443;-80
2023/06/13 07:26:34;;;;;;;36.03;4.43;;;;;;;;;;5074340;28;20835;-79
2023/06/13 07:29:02;;;;;;;3.73;3.03;;;;;;;;;;5081000;28;20467;-80
2023/06/13 07:31:28;;;;;;;8.17;2.97;;;;;;;;;;5083564;28;20453;-80
2023/06/13 07:33:55;;;;;;;4.50;3.23;;;;;;;;;;5093257;28;20453;-80
2023/06/13 07:36:21;;;;;;;6.70;2.90;;;;;;;;;;5084952;28;20458;-81
2023/06/13 07:38:47;;;;;;;3.63;3.17;;;;;;;;;;5083191;28;20858;-79
2023/06/13 07:41:14;;;;;;;4.57;2.60;;;;;;;;;;5083270;28;20490;-80
2023/06/13 07:43:41;;;;;;;5.60;3.20;;;;;;;;;;5084585;28;20475;-80
2023/06/13 07:46:08;;;;;;;6.40;3.07;;;;;;;;;;5079443;28;20857;-80
2023/06/13 07:48:35;;;;;;;5.20;2.97;;;;;;;;;;5087662;28;20477;-80
2023/06/13 07:51:01;;;;;;;8.17;3.37;;;;;;;;;;5087445;28;20442;-80
2023/06/13 07:53:28;;;;;;;4.80;2.60;;;;;;;;;;5078293;28;20467;-80
2023/06/13 07:55:55;;;;;;;4.17;2.70;;;;;;;;;;5087109;28;20808;-80
2023/06/13 07:58:23;;;;;;;3.83;3.00;;;;;;;;;;5072117;28;20470;-81
2023/06/13 08:00:50;;;;;;;3.13;2.40;;;;;;;;;;5081264;28;20886;-80
2023/06/13 08:03:18;;;;;;;5.70;3.27;;;;;;;;;;5075768;28;20449;-80
2023/06/13 08:05:45;;;;;;;3.87;3.07;;;;;;;;;;5080455;28;20826;-81
2023/06/13 08:08:11;;;;;;;3.73;3.00;;;;;;;;;;5083438;28;21001;-79
2023/06/13 08:10:37;;;;;;;3.30;2.87;;;;;;;;;;5072722;28;20466;-80
2023/06/13 08:13:04;;;;;;;5.33;3.07;;;;;;;;;;5087627;28;20438;-79
2023/06/13 08:15:30;;;;;;;4.70;2.87;;;;;;;;;;5083489;28;20471;-80
2023/06/13 08:17:57;;;;;;;9.70;3.50;;;;;;;;;;5076119;28;20458;-79
2023/06/13 08:20:25;;;;;;;5.87;3.23;;;;;;;;;;5079457;28;20478;-79
2023/06/13 08:22:51;;;;;;;2.97;2.60;;;;;;;;;;5078143;28;20959;-80
2023/06/13 08:25:18;;;;;;;4.77;2.87;;;;;;;;;;5080248;28;20501;-80
2023/06/13 08:27:44;;;;;;;6.37;3.13;;;;;;;;;;5089151;28;20455;-79
2023/06/13 08:30:11;;;;;;;4.27;3.13;;;;;;;;;;5082346;28;20983;-79
2023/06/13 08:32:38;;;;;;;7.07;4.00;;;;;;;;;;5088588;28;20706;-79
2023/06/13 08:35:05;;;;;;;14.37;5.67;;;;;;;;;;5080767;28;20895;-79
2023/06/13 08:37:32;;;;;;;8.03;4.00;;;;;;;;;;5083085;28;20467;-79
2023/06/13 08:39:59;;;;;;;4.27;3.00;;;;;;;;;;5078246;28;20467;-79
2023/06/13 08:42:26;;;;;;;5.07;3.40;;;;;;;;;;5085575;28;20818;-79
2023/06/13 08:44:53;;;;;;;3.30;3.00;;;;;;;;;;5084260;28;20474;-79
2023/06/13 08:47:19;;;;;;;5.17;3.17;;;;;;;;;;5079933;28;20475;-79
2023/06/13 08:49:46;;;;;;;4.90;3.20;;;;;;;;;;5076125;28;20956;-79
2023/06/13 08:52:13;;;;;;;3.47;2.77;;;;;;;;;;5079322;28;20454;-79
2023/06/13 08:54:43;;;;;;;4.53;3.40;;;;;;;;;;5071247;28;20859;-80
2023/06/13 08:57:13;;;;;;;4.13;3.10;;;;;;;;;;5083112;28;20480;-80
2023/06/13 08:59:40;;;;;;;8.23;2.80;;;;;;;;;;5072065;28;20479;-79
2023/06/13 09:02:07;;;;;;;4.53;3.07;;;;;;;;;;5076164;28;20485;-80
2023/06/13 09:04:35;;;;;;;6.13;3.70;;;;;;;;;;5072696;28;20857;-79
2023/06/13 09:07:02;;;;;;;5.20;2.80;;;;;;;;;;5080033;28;20451;-79
2023/06/13 09:09:29;;;;;;;7.90;3.40;;;;;;;;;;5074702;28;20463;-79
2023/06/13 09:11:59;;;;;;;3.40;3.10;;;;;;;;;;5062794;28;20451;-79
2023/06/13 09:14:25;;;;;;;3.30;2.90;;;;;;;;;;5081306;28;20474;-79
2023/06/13 09:16:53;;;;;;;3.10;2.77;;;;;;;;;;5080799;28;20442;-80
2023/06/13 09:19:20;;;;;;;3.67;3.03;;;;;;;;;;5082777;28;20466;-80
2023/06/13 09:21:46;;;;;;;4.03;3.37;;;;;;;;;;5081162;28;20489;-80
2023/06/13 09:24:13;;;;;;;3.63;3.23;;;;;;;;;;5076130;28;20470;-80
2023/06/13 09:26:39;;;;;;;3.73;3.33;;;;;;;;;;5088996;28;20442;-80
2023/06/13 09:29:08;;;;;;;4.20;3.37;;;;;;;;;;5082775;28;21000;-79
2023/06/13 09:31:37;;;;;;;3.60;3.30;;;;;;;;;;5074579;28;20458;-79
2023/06/13 09:34:05;;;;;;;6.63;3.60;;;;;;;;;;5085847;28;20474;-79
2023/06/13 09:36:34;;;;;;;5.53;4.30;;;;;;;;;;5092787;28;20449;-79
2023/06/13 09:39:01;;;;;;;7.17;3.40;;;;;;;;;;5080804;28;20474;-80
2023/06/13 09:41:30;;;;;;;5.00;3.37;;;;;;;;;;5077063;28;20482;-79
2023/06/13 09:43:56;;;;;;;5.40;3.07;;;;;;;;;;5080000;28;20859;-80
2023/06/13 09:46:24;;;;;;;4.17;2.83;;;;;;;;;;5080443;28;20454;-79
2023/06/13 09:48:51;;;;;;;5.00;3.50;;;;;;;;;;5076203;28;20475;-80
2023/06/13 09:51:17;;;;;;;9.63;4.07;;;;;;;;;;5080502;28;20444;-79
2023/06/13 09:53:46;;;;;;;6.70;3.50;;;;;;;;;;5087463;28;20866;-80
2023/06/13 09:56:13;;;;;;;4.47;4.07;;;;;;;;;;5076946;28;20447;-80
2023/06/13 09:58:41;;;;;;;6.30;3.80;;;;;;;;;;5085074;28;20536;-80
2023/06/13 10:01:12;;;;;;;4.40;2.93;;;;;;;;;;5080168;28;20489;-80
2023/06/13 10:03:41;;;;;;;8.57;3.03;;;;;;;;;;5078735;28;20462;-80
2023/06/13 10:06:07;;;;;;;3.17;2.87;;;;;;;;;;5078883;28;20457;-79
2023/06/13 10:08:34;;;;;;;3.53;3.23;;;;;;;;;;5069159;28;21052;-80
2023/06/13 10:11:03;;;;;;;3.70;2.83;;;;;;;;;;5080907;28;20449;-79
2023/06/13 10:13:32;;;;;;;3.83;3.40;;;;;;;;;;5079250;28;20469;-80
2023/06/13 10:16:02;;;;;;;5.53;3.73;;;;;;;;;;5088139;28;20469;-80
2023/06/13 10:18:30;;;;;;;7.23;4.00;;;;;;;;;;5074394;28;20919;-80
2023/06/13 10:20:59;;;;;;;6.00;3.77;;;;;;;;;;5073728;28;20482;-80
2023/06/13 10:23:28;;;;;;;7.83;3.30;;;;;;;;;;5081303;28;20784;-80
2023/06/13 10:25:58;;;;;;;3.77;3.47;;;;;;;;;;5089437;28;20940;-80
2023/06/13 10:28:31;;;;;;;8.40;3.80;;;;;;;;;;5075218;28;20519;-79
2023/06/13 10:31:03;;;;;;;4.73;3.93;;;;;;;;;;5071564;28;20446;-80
2023/06/13 10:33:45;;;;;;;4.03;3.53;;;;;;;;;;5078593;28;20450;-80
2023/06/13 10:36:18;;;;;;;5.53;3.27;;;;;;;;;;5079061;28;20481;-80
2023/06/13 10:38:58;;;;;;;10.20;3.50;;;;;;;;;;5079451;28;20469;-80
2023/06/13 10:41:43;;;;;;;8.33;3.60;;;;;;;;;;5077637;28;20467;-80
2023/06/13 10:44:12;;;;;;;7.40;3.80;;;;;;;;;;5068250;28;20471;-80
2023/06/13 10:46:39;;;;;;;3.80;3.50;;;;;;;;;;5074950;28;20443;-80
2023/06/13 10:49:06;;;;;;;4.23;3.13;;;;;;;;;;5082618;28;20482;-80
2023/06/13 10:51:34;;;;;;;4.17;3.10;;;;;;;;;;5090177;28;20458;-81
2023/06/13 10:54:07;;;;;;;3.83;3.30;;;;;;;;;;5088874;28;20483;-79
2023/06/13 10:56:34;;;;;;;4.50;4.03;;;;;;;;;;5084198;28;20462;-80
2023/06/13 10:59:04;;;;;;;6.20;3.63;;;;;;;;;;5064392;28;20988;-80
2023/06/13 11:01:31;;;;;;;4.77;3.20;;;;;;;;;;5080924;28;20478;-80
2023/06/13 11:04:04;;;;;;;4.20;3.70;;;;;;;;;;5091210;28;20472;-81
2023/06/13 11:06:31;;;;;;;4.83;3.17;;;;;;;;;;5097290;28;20442;-80
2023/06/13 11:09:09;;;;;;;3.97;3.23;;;;;;;;;;5084784;28;20852;-80
2023/06/13 11:11:43;;;;;;;4.00;3.60;;;;;;;;;;5093406;28;20449;-80
2023/06/13 11:14:10;;;;;;;4.63;3.60;;;;;;;;;;5091266;28;20473;-80
2023/06/13 11:16:37;;;;;;;4.13;3.77;;;;;;;;;;5078530;28;20439;-80
2023/06/13 11:19:05;;;;;;;4.40;3.10;;;;;;;;;;5074071;28;20551;-80
2023/06/13 11:21:32;;;;;;;4.20;3.67;;;;;;;;;;5082011;28;20478;-79
2023/06/13 11:23:58;;;;;;;6.63;3.63;;;;;;;;;;5083385;28;20466;-80
2023/06/13 11:26:26;;;;;;;6.27;4.50;;;;;;;;;;5077625;28;20504;-80
2023/06/13 11:28:53;;;;;;;3.23;2.93;;;;;;;;;;5079335;28;20480;-80
2023/06/13 11:31:19;;;;;;;7.73;3.40;;;;;;;;;;5092380;28;20464;-79
2023/06/13 11:33:47;;;;;;;3.13;2.83;;;;;;;;;;5081975;28;20461;-80
2023/06/13 11:36:15;;;;;;;9.73;3.90;;;;;;;;;;5089140;28;20920;-79
2023/06/13 11:38:44;;;;;;;10.57;6.30;;;;;;;;;;5086407;28;20467;-80
2023/06/13 11:41:10;;;;;;;3.80;3.43;;;;;;;;;;5088919;28;20518;-79
2023/06/13 11:43:38;;;;;;;4.10;3.70;;;;;;;;;;5090731;28;20461;-79
2023/06/13 11:46:05;;;;;;;4.37;3.70;;;;;;;;;;5084611;28;20447;-80
2023/06/13 11:48:32;;;;;;;4.37;3.73;;;;;;;;;;5078375;28;20473;-80
2023/06/13 11:51:08;;;;;;;4.90;3.73;;;;;;;;;;5088650;28;20460;-79
2023/06/13 11:53:46;;;;;;;4.53;3.80;;;;;;;;;;5079912;28;20449;-80
2023/06/13 11:56:12;;;;;;;5.57;3.50;;;;;;;;;;5084307;28;20441;-80
2023/06/13 11:58:42;;;;;;;4.00;3.40;;;;;;;;;;5088051;28;20455;-80
2023/06/13 12:01:13;;;;;;;4.93;3.73;;;;;;;;;;5087299;28;20430;-80
2023/06/13 12:03:40;;;;;;;6.90;3.70;;;;;;;;;;5089891;28;20465;-80
2023/06/13 12:06:07;;;;;;;4.07;3.77;;;;;;;;;;5080005;28;20443;-80
2023/06/13 12:08:34;;;;;;;3.53;3.13;;;;;;;;;;5082844;28;20477;-80
2023/06/13 12:11:02;;;;;;;6.97;3.67;;;;;;;;;;5089577;28;20445;-80
2023/06/13 12:13:29;;;;;;;5.80;3.63;;;;;;;;;;5082035;28;20516;-80
2023/06/13 12:15:57;;;;;;;3.50;3.20;;;;;;;;;;5080544;28;20462;-80
2023/06/13 12:18:23;;;;;;;5.60;3.20;;;;;;;;;;5084168;28;20816;-80
2023/06/13 12:20:53;;;;;;;5.47;3.17;;;;;;;;;;5086930;28;20453;-80
2023/06/13 12:23:20;;;;;;;9.83;5.40;;;;;;;;;;5083335;28;20533;-80
2023/06/13 12:25:46;;;;;;;5.03;4.27;;;;;;;;;;5081895;28;20477;-80
2023/06/13 12:28:15;;;;;;;4.20;3.53;;;;;;;;;;5083358;28;20474;-80
2023/06/13 12:30:42;;;;;;;4.70;3.60;;;;;;;;;;5088182;28;20800;-80
2023/06/13 12:33:14;;;;;;;4.77;4.10;;;;;;;;;;5083275;28;20443;-80
2023/06/13 12:35:48;;;;;;;7.20;3.60;;;;;;;;;;5071626;28;20459;-80
2023/06/13 12:38:15;;;;;;;4.03;3.20;;;;;;;;;;5086370;28;20484;-79
2023/06/13 12:40:41;;;;;;;3.80;3.50;;;;;;;;;;5084417;28;20507;-80
2023/06/13 12:43:08;;;;;;;4.53;3.50;;;;;;;;;;5084660;28;20517;-80
2023/06/13 12:45:34;;;;;;;5.87;3.50;;;;;;;;;;5085837;28;20466;-79
2023/06/13 12:48:00;;;;;;;3.40;3.10;;;;;;;;;;5090008;28;20473;-80
2023/06/13 12:50:30;;;;;;;4.97;3.07;;;;;;;;;;5084027;28;20477;-79
2023/06/13 12:53:01;;;;;;;3.47;3.17;;;;;;;;;;5088418;28;20451;-80
2023/06/13 12:55:29;;;;;;;3.90;3.50;;;;;;;;;;5088609;28;20467;-80
2023/06/13 12:57:56;;;;;;;4.60;3.27;;;;;;;;;;5080675;28;20564;-80
2023/06/13 13:00:23;;;;;;;3.30;3.00;;;;;;;;;;5080771;28;20467;-80
2023/06/13 13:02:51;;;;;;;5.77;2.97;;;;;;;;;;5080495;28;20843;-79
2023/06/13 13:05:18;;;;;;;4.47;3.40;;;;;;;;;;5086645;28;20994;-80
2023/06/13 13:07:46;;;;;;;4.77;3.70;;;;;;;;;;5087506;28;20474;-80
2023/06/13 13:10:12;;;;;;;3.47;3.17;;;;;;;;;;5084863;28;20991;-80
2023/06/13 13:12:39;;;;;;;3.30;3.00;;;;;;;;;;5076557;28;20439;-79
2023/06/13 13:15:06;;;;;;;3.30;3.00;;;;;;;;;;5079785;28;20478;-80
2023/06/13 13:17:32;;;;;;;4.70;3.30;;;;;;;;;;5082236;28;20474;-80
2023/06/13 13:20:00;;;;;;;5.33;3.53;;;;;;;;;;5090743;28;20481;-80
2023/06/13 13:22:26;;;;;;;4.03;3.67;;;;;;;;;;5089027;28;20485;-80
2023/06/13 13:24:54;;;;;;;3.60;3.27;;;;;;;;;;5090373;28;20476;-80
2023/06/13 13:27:20;;;;;;;3.70;3.33;;;;;;;;;;5082056;28;20984;-81
2023/06/13 13:29:47;;;;;;;4.30;3.73;;;;;;;;;;5082476;28;20545;-80
2023/06/13 13:32:13;;;;;;;4.30;3.57;;;;;;;;;;5086007;28;20438;-80
2023/06/13 13:34:39;;;;;;;6.27;3.60;;;;;;;;;;5073617;28;20480;-80
2023/06/13 13:37:06;;;;;;;3.60;3.30;;;;;;;;;;5083501;28;20470;-81
2023/06/13 13:39:32;;;;;;;4.90;3.67;;;;;;;;;;5084365;28;20852;-80
2023/06/13 13:42:00;;;;;;;7.00;3.30;;;;;;;;;;5081382;28;20492;-80
2023/06/13 13:44:27;;;;;;;6.23;4.07;;;;;;;;;;5077514;28;20463;-80
2023/06/13 13:46:54;;;;;;;3.87;3.33;;;;;;;;;;5082554;28;20439;-80
2023/06/13 13:49:20;;;;;;;3.50;3.20;;;;;;;;;;5090419;28;20462;-80
2023/06/13 13:51:47;;;;;;;3.43;2.93;;;;;;;;;;5084914;28;20446;-80
2023/06/13 13:54:14;;;;;;;3.20;3.00;;;;;;;;;;5080152;28;20497;-82
2023/06/13 13:56:41;;;;;;;3.17;2.43;;;;;;;;;;5082298;28;20458;-80
2023/06/13 13:59:08;;;;;;;8.23;3.30;;;;;;;;;;5076550;28;20991;-80
2023/06/13 14:01:35;;;;;;;3.53;3.13;;;;;;;;;;5083280;28;20443;-80
2023/06/13 14:04:01;;;;;;;5.20;3.57;;;;;;;;;;5079100;28;20466;-80
2023/06/13 14:06:27;;;;;;;4.37;3.23;;;;;;;;;;5078611;28;20447;-79
2023/06/13 14:08:54;;;;;;;4.70;3.30;;;;;;;;;;5079925;28;20471;-79
2023/06/13 14:11:22;;;;;;;5.33;3.77;;;;;;;;;;5078338;28;20457;-79
2023/06/13 14:13:49;;;;;;;3.80;2.77;;;;;;;;;;5067976;28;20459;-79
2023/06/13 14:16:17;;;;;;;4.80;3.50;;;;;;;;;;5079415;28;20482;-80
2023/06/13 14:18:43;;;;;;;8.80;3.23;;;;;;;;;;5080574;28;20473;-79
2023/06/13 14:21:09;;;;;;;11.07;3.40;;;;;;;;;;5080570;28;20933;-80
2023/06/13 14:23:37;;;;;;;4.00;3.60;;;;;;;;;;5086597;28;20459;-79
2023/06/13 14:26:03;;;;;;;7.97;3.47;;;;;;;;;;5087384;28;20443;-80
2023/06/13 14:28:29;;;;;;;5.10;3.60;;;;;;;;;;5077035;28;20471;-80
2023/06/13 14:30:56;;;;;;;4.70;3.60;;;;;;;;;;5075183;28;20446;-80
2023/06/13 14:33:23;;;;;;;9.67;4.77;;;;;;;;;;5085206;28;20503;-81
2023/06/13 14:35:50;;;;;;;3.50;3.20;;;;;;;;;;5086726;28;20968;-80
2023/06/13 14:38:16;;;;;;;3.50;3.13;;;;;;;;;;5078813;28;20546;-80
2023/06/13 14:40:43;;;;;;;12.20;4.13;;;;;;;;;;5084103;28;20446;-80
2023/06/13 14:43:09;;;;;;;11.00;4.17;;;;;;;;;;5083403;28;20479;-80
2023/06/13 14:45:36;;;;;;;4.23;3.30;;;;;;;;;;5071558;28;20502;-82